createdAt,value
2022-09-06T00:01:18.372Z,13.10
2022-09-06T00:03:46.830Z,13.53
2022-09-06T00:06:17.463Z,12.90
2022-09-06T00:08:48.101Z,14.20
2022-09-06T00:11:17.465Z,12.90
2022-09-06T00:13:45.673Z,12.93
2022-09-06T00:16:16.634Z,12.73
2022-09-06T00:18:45.425Z,13.67
2022-09-06T00:21:18.690Z,12.90
2022-09-06T00:23:48.236Z,12.70
2022-09-06T00:26:16.426Z,11.77
2022-09-06T00:28:44.647Z,13.77
2022-09-06T00:31:14.101Z,13.17
2022-09-06T00:33:42.553Z,11.77
2022-09-06T00:36:11.020Z,12.10
2022-09-06T00:38:39.511Z,13.33
2022-09-06T00:41:11.587Z,11.10
2022-09-06T00:43:39.717Z,13.47
2022-09-06T00:46:09.415Z,14.60
2022-09-06T00:48:38.858Z,12.13
2022-09-06T00:51:10.011Z,14.07
2022-09-06T00:53:38.123Z,12.90
2022-09-06T00:56:08.188Z,12.43
2022-09-06T00:58:36.458Z,13.30
2022-09-06T01:01:05.240Z,13.10
2022-09-06T01:03:33.492Z,12.93
2022-09-06T01:06:20.622Z,12.00
2022-09-06T01:08:59.282Z,13.60
2022-09-06T01:11:54.988Z,14.90
2022-09-06T01:14:31.848Z,13.87
2022-09-06T01:17:04.901Z,12.50
2022-09-06T01:19:52.489Z,12.67
2022-09-06T01:22:33.458Z,12.13
2022-09-06T01:25:09.926Z,13.27
2022-09-06T01:28:07.670Z,12.70
2022-09-06T01:30:39.479Z,12.23
2022-09-06T01:33:11.673Z,12.00
2022-09-06T01:35:41.889Z,12.37
2022-09-06T01:38:10.138Z,13.60
2022-09-06T01:40:38.124Z,12.93
2022-09-06T01:43:11.213Z,13.53
2022-09-06T01:45:45.448Z,12.50
2022-09-06T01:48:26.161Z,12.50
2022-09-06T01:51:00.158Z,13.80
2022-09-06T01:53:47.748Z,14.57
2022-09-06T01:56:22.541Z,13.43
2022-09-06T01:59:03.301Z,16.00
2022-09-06T02:01:36.859Z,17.70
2022-09-06T02:04:09.526Z,50.83
2022-09-06T02:06:42.013Z,18.50
2022-09-06T02:09:12.604Z,20.00
2022-09-06T02:11:43.309Z,18.03
2022-09-06T02:14:17.234Z,17.40
2022-09-06T02:16:47.259Z,16.10
2022-09-06T02:19:18.994Z,14.53
2022-09-06T02:21:47.796Z,17.90
2022-09-06T02:24:19.655Z,16.50
2022-09-06T02:26:48.097Z,17.37
2022-09-06T02:29:18.050Z,18.70
2022-09-06T02:31:48.618Z,16.77
2022-09-06T02:34:18.861Z,29.80
2022-09-06T02:36:47.731Z,25.07
2022-09-06T02:39:15.787Z,32.80
2022-09-06T02:41:45.003Z,25.10
2022-09-06T02:44:13.043Z,22.47
2022-09-06T02:46:42.439Z,23.37
2022-09-06T02:49:10.469Z,16.67
2022-09-06T02:51:39.385Z,15.73
2022-09-06T02:54:08.077Z,17.60
2022-09-06T02:56:36.751Z,15.37
2022-09-06T02:59:05.553Z,14.07
2022-09-06T03:01:35.263Z,14.30
2022-09-06T03:04:04.770Z,15.43
2022-09-06T03:06:32.841Z,13.50
2022-09-06T03:09:01.076Z,13.87
2022-09-06T03:11:29.216Z,14.07
2022-09-06T03:13:57.192Z,14.43
2022-09-06T03:16:25.282Z,14.30
2022-09-06T03:18:53.333Z,14.60
2022-09-06T03:21:22.752Z,14.93
2022-09-06T03:23:51.011Z,14.43
2022-09-06T03:26:19.010Z,15.20
2022-09-06T03:28:47.006Z,15.53
2022-09-06T03:31:15.174Z,14.93
2022-09-06T03:33:43.216Z,14.80
2022-09-06T03:36:11.190Z,14.73
2022-09-06T03:38:41.546Z,12.93
2022-09-06T03:41:09.564Z,14.00
2022-09-06T03:43:37.741Z,14.10
2022-09-06T03:46:05.872Z,14.23
2022-09-06T03:48:33.900Z,13.43
2022-09-06T03:51:01.881Z,14.00
2022-09-06T03:53:30.649Z,15.07
2022-09-06T03:56:00.104Z,15.70
2022-09-06T03:58:31.895Z,14.90
2022-09-06T04:01:07.743Z,12.90
2022-09-06T04:03:36.154Z,15.53
2022-09-06T04:06:04.984Z,15.57
2022-09-06T04:08:33.545Z,14.53
2022-09-06T04:11:03.034Z,15.33
2022-09-06T04:13:31.601Z,16.40
2022-09-06T04:15:59.709Z,17.43
2022-09-06T04:18:28.321Z,17.57
2022-09-06T04:20:57.105Z,15.70
2022-09-06T04:23:25.764Z,15.27
2022-09-06T04:25:55.100Z,15.57
2022-09-06T04:28:26.552Z,16.27
2022-09-06T04:30:55.087Z,15.70
2022-09-06T04:33:25.826Z,16.00
2022-09-06T04:35:54.323Z,14.77
2022-09-06T04:38:28.219Z,15.23
2022-09-06T04:40:56.634Z,15.90
2022-09-06T04:43:26.051Z,17.43
2022-09-06T04:45:54.096Z,15.07
2022-09-06T04:48:22.146Z,14.00
2022-09-06T04:50:50.246Z,15.73
2022-09-06T04:53:18.238Z,15.63
2022-09-06T04:55:46.263Z,15.40
2022-09-06T04:58:14.274Z,17.07
2022-09-06T05:00:44.804Z,17.33
2022-09-06T05:03:12.926Z,16.93
2022-09-06T05:05:40.904Z,14.17
2022-09-06T05:08:08.938Z,13.80
2022-09-06T05:10:36.944Z,12.27
2022-09-06T05:13:05.009Z,11.73
2022-09-06T05:15:33.650Z,14.60
2022-09-06T05:18:06.758Z,15.93
2022-09-06T05:20:34.747Z,9.93
2022-09-06T05:23:02.733Z,11.37
2022-09-06T05:25:31.179Z,9.80
2022-09-06T05:27:59.174Z,9.37
2022-09-06T05:30:27.122Z,18.90
2022-09-06T05:32:55.162Z,27.27
2022-09-06T05:35:24.549Z,23.87
2022-09-06T05:37:52.559Z,16.53
2022-09-06T05:40:20.635Z,12.13
2022-09-06T05:42:49.014Z,9.27
2022-09-06T05:45:17.183Z,7.77
2022-09-06T05:47:45.301Z,6.17
2022-09-06T05:50:13.544Z,6.57
2022-09-06T05:52:42.893Z,12.60
2022-09-06T05:55:11.182Z,18.40
2022-09-06T05:57:39.151Z,21.53
2022-09-06T06:00:08.072Z,8.10
2022-09-06T06:02:36.139Z,5.90
2022-09-06T06:05:04.635Z,5.63
2022-09-06T06:07:32.605Z,6.10
2022-09-06T06:10:01.984Z,6.57
2022-09-06T06:12:30.947Z,6.13
2022-09-06T06:14:59.261Z,6.80
2022-09-06T06:17:28.695Z,6.57
2022-09-06T06:19:56.720Z,10.60
2022-09-06T06:22:24.754Z,19.13
2022-09-06T06:24:52.774Z,5.37
2022-09-06T06:27:22.164Z,8.47
2022-09-06T06:29:50.618Z,18.40
2022-09-06T06:32:18.666Z,33.77
2022-09-06T06:34:46.723Z,17.10
2022-09-06T06:37:15.384Z,10.17
2022-09-06T06:39:43.458Z,7.20
2022-09-06T06:42:11.545Z,6.47
2022-09-06T06:44:41.205Z,7.20
2022-09-06T06:47:09.184Z,6.53
2022-09-06T06:49:37.457Z,6.40
2022-09-06T06:52:05.500Z,5.70
2022-09-06T06:54:33.529Z,7.33
2022-09-06T06:57:01.622Z,5.47
2022-09-06T06:59:29.853Z,6.80
2022-09-06T07:01:59.451Z,6.63
2022-09-06T07:04:27.660Z,7.40
2022-09-06T07:12:33.047Z,13.07
2022-09-06T07:15:01.043Z,8.00
2022-09-06T07:17:30.838Z,13.73
2022-09-06T07:20:14.776Z,10.00
2022-09-06T07:22:43.705Z,6.93
2022-09-06T07:25:14.454Z,6.77
2022-09-06T07:30:19.909Z,7.17
2022-09-06T07:32:49.541Z,7.83
2022-09-06T07:35:17.636Z,10.63
2022-09-06T07:37:53.118Z,8.90
2022-09-06T07:40:21.133Z,6.50
2022-09-06T07:42:49.417Z,7.60
2022-09-06T07:45:18.177Z,7.40
2022-09-06T07:48:01.631Z,7.33
2022-09-06T07:50:48.881Z,9.37
2022-09-06T07:53:26.351Z,7.00
2022-09-06T07:55:57.192Z,7.83
2022-09-06T07:58:25.204Z,7.10
2022-09-06T08:00:53.239Z,14.30
2022-09-06T08:03:21.355Z,7.87
2022-09-06T08:06:09.346Z,7.43
2022-09-06T08:11:28.163Z,8.50
2022-09-06T08:13:57.295Z,7.43
2022-09-06T08:16:27.926Z,7.90
2022-09-06T08:18:57.351Z,7.33
2022-09-06T08:21:28.091Z,7.10
2022-09-06T08:23:57.558Z,7.10
2022-09-06T08:26:26.729Z,7.57
2022-09-06T08:28:56.003Z,7.70
2022-09-06T08:31:24.293Z,8.53
2022-09-06T08:33:52.912Z,7.47
2022-09-06T08:36:21.165Z,8.10
2022-09-06T08:38:50.526Z,7.50
2022-09-06T08:41:25.810Z,6.70
2022-09-06T08:46:49.481Z,7.37
2022-09-06T08:49:17.596Z,7.47
2022-09-06T08:51:54.101Z,7.13
2022-09-06T08:54:29.793Z,7.07
2022-09-06T08:57:06.019Z,8.13
2022-09-06T08:59:39.775Z,7.00
2022-09-06T09:02:13.052Z,6.13
2022-09-06T09:04:45.962Z,6.80
2022-09-06T09:07:26.353Z,7.27
2022-09-06T09:09:57.274Z,7.20
2022-09-06T09:12:26.400Z,6.80
2022-09-06T09:14:57.706Z,6.97
2022-09-06T09:17:27.565Z,6.87
2022-09-06T09:19:56.162Z,6.60
2022-09-06T09:22:25.895Z,7.13
2022-09-06T09:24:55.704Z,6.90
2022-09-06T09:27:25.754Z,7.10
2022-09-06T09:32:50.204Z,6.73
2022-09-06T09:35:24.539Z,8.10
2022-09-06T09:38:08.082Z,8.40
2022-09-06T09:40:43.786Z,7.80
2022-09-06T09:43:17.234Z,7.20
2022-09-06T09:45:45.444Z,7.30
2022-09-06T09:48:22.779Z,7.60
2022-09-06T09:50:50.881Z,7.87
2022-09-06T09:53:21.475Z,7.90
2022-09-06T09:55:56.722Z,7.10
2022-09-06T09:58:32.056Z,8.33
2022-09-06T10:01:14.460Z,7.77
2022-09-06T10:09:31.089Z,7.07
2022-09-06T10:12:01.547Z,6.77
2022-09-06T10:14:32.291Z,7.03
2022-09-06T10:17:00.930Z,7.67
2022-09-06T10:19:41.006Z,5.80
2022-09-06T10:22:20.844Z,7.30
2022-09-06T10:25:11.746Z,7.30
2022-09-06T10:28:08.176Z,6.90
2022-09-06T10:30:43.369Z,6.77
2022-09-06T10:33:20.846Z,7.30
2022-09-06T10:35:48.765Z,7.03
2022-09-06T10:38:28.419Z,7.63
2022-09-06T10:41:03.650Z,7.10
2022-09-06T10:43:39.247Z,8.40
2022-09-06T10:46:13.245Z,7.10
2022-09-06T10:48:43.008Z,6.43
2022-09-06T10:51:18.968Z,6.60
2022-09-06T10:53:49.744Z,7.13
2022-09-06T10:56:20.005Z,6.53
2022-09-06T11:01:43.798Z,7.00
2022-09-06T11:04:20.235Z,6.10
2022-09-06T11:06:53.157Z,6.40
2022-09-06T11:09:26.245Z,7.30
2022-09-06T11:12:02.292Z,6.70
2022-09-06T11:14:31.725Z,7.00
2022-09-06T11:17:03.181Z,7.40
2022-09-06T11:19:34.554Z,7.57
2022-09-06T11:22:25.839Z,8.07
2022-09-06T11:25:21.464Z,7.30
2022-09-06T11:27:57.770Z,7.40
2022-09-06T11:30:30.906Z,7.23
2022-09-06T11:33:11.581Z,6.90
2022-09-06T11:35:42.240Z,7.50
2022-09-06T11:38:21.363Z,7.53
2022-09-06T11:40:55.490Z,8.73
2022-09-06T11:43:45.283Z,8.13
2022-09-06T11:46:55.503Z,7.53
2022-09-06T11:49:41.777Z,8.23
2022-09-06T11:52:59.386Z,8.37
2022-09-06T11:55:36.801Z,7.90
2022-09-06T11:58:07.737Z,8.30
2022-09-06T12:00:35.878Z,8.93
2022-09-06T12:06:17.835Z,8.30
2022-09-06T12:08:45.998Z,8.40
2022-09-06T12:11:30.163Z,7.90
2022-09-06T12:14:04.165Z,7.67
2022-09-06T12:17:25.885Z,7.80
2022-09-06T12:19:57.879Z,8.33
2022-09-06T12:23:02.425Z,7.30
2022-09-06T12:25:56.100Z,7.00
2022-09-06T12:28:29.242Z,7.90
2022-09-06T12:30:57.426Z,8.27
2022-09-06T12:33:28.186Z,8.07
2022-09-06T12:36:13.785Z,8.40
2022-09-06T12:38:41.795Z,8.10
2022-09-06T12:41:09.755Z,8.83
2022-09-06T12:43:40.289Z,8.20
2022-09-06T12:46:08.809Z,9.27
2022-09-06T12:48:41.294Z,8.27
2022-09-06T12:51:16.265Z,7.70
2022-09-06T12:53:51.341Z,7.60
2022-09-06T12:56:21.492Z,7.30
2022-09-06T12:58:49.415Z,7.43
2022-09-06T13:01:22.806Z,7.30
2022-09-06T13:03:57.082Z,7.90
2022-09-06T13:06:27.496Z,7.43
2022-09-06T13:08:57.097Z,7.90
2022-09-06T13:11:27.738Z,8.13
2022-09-06T13:13:56.312Z,8.03
2022-09-06T13:16:25.642Z,7.83
2022-09-06T13:18:54.065Z,7.60
2022-09-06T13:21:29.627Z,6.90
2022-09-06T13:23:59.143Z,7.70
2022-09-06T13:26:35.226Z,7.57
2022-09-06T13:29:14.913Z,7.50
2022-09-06T13:31:46.261Z,7.77
2022-09-06T13:34:21.600Z,7.40
2022-09-06T13:36:52.431Z,7.30
2022-09-06T13:39:34.444Z,7.97
2022-09-06T13:42:05.706Z,7.60
2022-09-06T13:44:34.723Z,7.00
2022-09-06T13:47:03.062Z,7.40
2022-09-06T13:49:31.622Z,7.00
2022-09-06T13:52:02.457Z,7.17
2022-09-06T13:54:30.953Z,7.03
2022-09-06T13:56:59.008Z,6.80
2022-09-06T13:59:26.984Z,6.87
2022-09-06T14:02:01.999Z,6.87
2022-09-06T14:04:30.193Z,6.87
2022-09-06T14:06:58.262Z,6.80
2022-09-06T14:09:27.686Z,6.97
2022-09-06T14:12:33.489Z,6.70
2022-09-06T14:15:01.601Z,7.87
2022-09-06T14:17:29.734Z,7.07
2022-09-06T14:19:57.758Z,7.43
2022-09-06T14:22:25.816Z,7.07
2022-09-06T14:24:55.498Z,6.10
2022-09-06T14:27:23.843Z,6.70
2022-09-06T14:29:51.844Z,7.70
2022-09-06T14:32:22.601Z,6.57
2022-09-06T14:34:50.825Z,7.50
2022-09-06T14:37:18.767Z,6.60
2022-09-06T14:40:26.738Z,7.23
2022-09-06T14:42:54.808Z,7.73
2022-09-06T14:45:23.465Z,6.93
2022-09-06T14:47:51.571Z,7.90
2022-09-06T14:50:19.782Z,6.70
2022-09-06T14:52:47.912Z,7.37
2022-09-06T14:55:16.130Z,7.10
2022-09-06T14:57:45.838Z,6.90
2022-09-06T15:00:15.148Z,6.93
2022-09-06T15:02:44.101Z,6.40
2022-09-06T15:05:12.168Z,6.83
2022-09-06T15:07:40.221Z,6.87
2022-09-06T15:10:08.781Z,6.80
2022-09-06T15:12:37.882Z,7.07
2022-09-06T15:15:08.169Z,6.73
2022-09-06T15:17:36.681Z,6.70
2022-09-06T15:20:05.888Z,5.90
2022-09-06T15:22:35.809Z,6.60
2022-09-06T15:25:03.869Z,7.10
2022-09-06T15:27:33.235Z,11.43
2022-09-06T15:30:01.320Z,6.60
2022-09-06T15:32:30.761Z,28.37
2022-09-06T15:35:04.293Z,6.20
2022-09-06T15:37:32.807Z,24.63
2022-09-06T15:40:01.090Z,17.77
2022-09-06T15:42:29.264Z,8.37
2022-09-06T15:44:57.329Z,9.00
2022-09-06T15:47:25.373Z,9.70
2022-09-06T15:49:54.996Z,8.60
2022-09-06T15:52:23.081Z,13.77
2022-09-06T15:55:09.021Z,8.77
2022-09-06T15:57:37.052Z,7.07
2022-09-06T16:00:05.795Z,7.10
2022-09-06T16:02:33.883Z,6.43
2022-09-06T16:05:03.337Z,6.57
2022-09-06T16:07:31.396Z,7.30
2022-09-06T16:10:00.997Z,8.73
2022-09-06T16:12:29.085Z,8.17
2022-09-06T16:14:57.129Z,8.13
2022-09-06T16:17:27.467Z,8.90
2022-09-06T16:19:55.560Z,8.93
2022-09-06T16:22:25.122Z,8.97
2022-09-06T16:24:53.235Z,8.90
2022-09-06T16:27:21.299Z,8.73
2022-09-06T16:29:49.347Z,8.83
2022-09-06T16:32:17.713Z,8.47
2022-09-06T16:34:45.873Z,8.40
2022-09-06T16:37:14.066Z,9.07
2022-09-06T16:39:43.677Z,9.07
2022-09-06T16:42:12.595Z,9.70
2022-09-06T16:44:40.618Z,9.30
2022-09-06T16:47:08.737Z,8.80
2022-09-06T16:49:36.758Z,9.67
2022-09-06T16:52:04.989Z,9.83
2022-09-06T16:54:33.013Z,10.30
2022-09-06T16:57:03.450Z,9.93
2022-09-06T16:59:31.500Z,10.40
2022-09-06T17:01:59.579Z,10.40
2022-09-06T17:04:27.694Z,9.57
2022-09-06T17:06:55.823Z,9.47
2022-09-06T17:09:23.902Z,10.07
2022-09-06T17:11:51.957Z,10.27
2022-09-06T17:14:21.394Z,9.30
2022-09-06T17:17:07.169Z,9.73
2022-09-06T17:19:37.087Z,9.80
2022-09-06T17:22:05.534Z,11.50
2022-09-06T17:24:33.761Z,10.47
2022-09-06T17:27:01.777Z,10.17
2022-09-06T17:29:31.279Z,11.00
2022-09-06T17:31:59.477Z,10.10
2022-09-06T17:34:27.686Z,10.77
2022-09-06T17:36:55.718Z,11.73
2022-09-06T17:39:23.869Z,11.00
2022-09-06T17:41:53.362Z,11.70
2022-09-06T17:44:22.891Z,10.90
2022-09-06T17:47:11.423Z,12.40
2022-09-06T17:49:40.623Z,11.70
2022-09-06T17:52:08.705Z,11.23
2022-09-06T17:54:36.969Z,12.20
2022-09-06T17:57:05.319Z,11.87
2022-09-06T17:59:35.953Z,12.40
2022-09-06T18:02:06.056Z,11.70
2022-09-06T18:04:34.301Z,12.17
2022-09-06T18:07:02.433Z,11.10
2022-09-06T18:09:30.604Z,10.90
2022-09-06T18:11:58.981Z,12.70
2022-09-06T18:14:28.573Z,12.23
2022-09-06T18:16:57.190Z,11.60
2022-09-06T18:19:27.537Z,12.83
2022-09-06T18:21:57.354Z,12.07
2022-09-06T18:24:25.649Z,11.90
2022-09-06T18:26:53.733Z,12.67
2022-09-06T18:29:21.972Z,12.83
2022-09-06T18:31:53.660Z,14.13
2022-09-06T18:34:22.225Z,12.90
2022-09-06T18:36:51.743Z,14.60
2022-09-06T18:39:20.462Z,15.03
2022-09-06T18:42:07.127Z,13.30
2022-09-06T18:44:35.877Z,14.13
2022-09-06T18:47:05.664Z,13.00
2022-09-06T18:49:34.701Z,12.97
2022-09-06T18:52:05.674Z,13.87
2022-09-06T18:54:34.764Z,14.07
2022-09-06T18:57:03.125Z,13.80
2022-09-06T18:59:31.586Z,14.60
2022-09-06T19:01:59.732Z,14.50
2022-09-06T19:04:27.882Z,16.40
2022-09-06T19:06:56.104Z,15.50
2022-09-06T19:09:25.569Z,14.47
2022-09-06T19:11:53.778Z,13.85
2022-09-06T19:14:22.272Z,16.40
2022-09-06T19:16:51.779Z,15.33
2022-09-06T19:19:21.381Z,16.70
2022-09-06T19:21:49.415Z,17.00
2022-09-06T19:24:17.466Z,17.00
2022-09-06T19:26:47.165Z,19.60
2022-09-06T19:29:17.133Z,17.40
2022-09-06T19:31:47.012Z,16.83
2022-09-06T19:34:15.949Z,17.23
2022-09-06T19:36:45.070Z,17.70
2022-09-06T19:39:15.438Z,18.50
2022-09-06T19:41:47.656Z,16.63
2022-09-06T19:44:16.620Z,16.73
2022-09-06T19:46:46.750Z,17.03
2022-09-06T19:49:16.288Z,17.13
2022-09-06T19:51:46.441Z,18.23
2022-09-06T19:54:15.541Z,18.87
2022-09-06T19:56:44.351Z,17.80
2022-09-06T19:59:14.668Z,17.43
2022-09-06T20:01:44.156Z,17.20
2022-09-06T20:04:13.887Z,18.30
2022-09-06T20:06:42.561Z,18.47
2022-09-06T20:09:11.637Z,19.50
2022-09-06T20:11:41.014Z,20.17
2022-09-06T20:14:09.602Z,18.47
2022-09-06T20:16:41.854Z,17.80
2022-09-06T20:19:11.984Z,19.23
2022-09-06T20:21:40.314Z,19.07
2022-09-06T20:24:08.709Z,21.33
2022-09-06T20:26:37.775Z,20.50
2022-09-06T20:29:06.688Z,19.63
2022-09-06T20:31:35.447Z,18.90
2022-09-06T20:34:06.350Z,16.87
2022-09-06T20:36:34.645Z,18.90
2022-09-06T20:39:03.263Z,17.90
2022-09-06T20:41:31.350Z,19.30
2022-09-06T20:44:00.826Z,18.63
2022-09-06T20:46:30.569Z,18.50
2022-09-06T20:49:01.927Z,18.97
2022-09-06T20:51:31.860Z,20.03
2022-09-06T20:54:01.209Z,18.07
2022-09-06T20:56:31.335Z,18.17
2022-09-06T20:59:01.734Z,20.60
2022-09-06T21:01:33.565Z,19.63
2022-09-06T21:04:02.722Z,20.80
2022-09-06T21:06:34.499Z,20.77
2022-09-06T21:09:03.116Z,19.13
2022-09-06T21:11:31.128Z,18.13
2022-09-06T21:13:59.421Z,18.10
2022-09-06T21:16:29.077Z,19.67
2022-09-06T21:18:58.295Z,19.20
2022-09-06T21:21:26.943Z,18.77
2022-09-06T21:23:56.583Z,17.40
2022-09-06T21:26:24.898Z,18.90
2022-09-06T21:28:53.159Z,18.77
2022-09-06T21:31:23.080Z,20.20
2022-09-06T21:33:53.727Z,19.67
2022-09-06T21:36:23.361Z,19.20
2022-09-06T21:38:54.058Z,18.50
2022-09-06T21:41:24.265Z,19.23
2022-09-06T21:43:53.446Z,19.30
2022-09-06T21:46:22.530Z,18.30
2022-09-06T21:48:52.254Z,18.80
2022-09-06T21:51:21.786Z,21.07
2022-09-06T21:53:52.431Z,20.50
2022-09-06T21:56:20.774Z,18.03
2022-09-06T21:58:52.532Z,20.10
2022-09-06T22:01:21.583Z,19.30
2022-09-06T22:03:49.686Z,20.23
2022-09-06T22:06:20.033Z,18.90
2022-09-06T22:08:48.492Z,19.13
2022-09-06T22:11:18.120Z,19.57
2022-09-06T22:13:46.774Z,18.80
2022-09-06T22:16:17.905Z,20.60
2022-09-06T22:18:46.280Z,20.17
2022-09-06T22:21:18.533Z,20.50
2022-09-06T22:23:51.077Z,20.83
2022-09-06T22:26:19.436Z,20.67
2022-09-06T22:28:47.617Z,22.30
2022-09-06T22:31:17.089Z,20.90
2022-09-06T22:33:45.142Z,20.40
2022-09-06T22:36:13.188Z,21.10
2022-09-06T22:38:41.293Z,20.13
2022-09-06T22:41:09.349Z,19.33
2022-09-06T22:43:37.552Z,19.50
2022-09-06T22:46:06.680Z,18.70
2022-09-06T22:48:37.052Z,19.13
2022-09-06T22:51:06.105Z,20.20
2022-09-06T22:53:35.029Z,20.50
2022-09-06T22:56:04.037Z,20.60
2022-09-06T22:58:32.213Z,20.10
2022-09-06T23:01:06.926Z,20.23
2022-09-06T23:03:36.909Z,18.83
2022-09-06T23:06:05.827Z,20.70
2022-09-06T23:08:35.468Z,20.60
2022-09-06T23:11:06.839Z,20.50
2022-09-06T23:13:35.436Z,22.60
2022-09-06T23:16:04.990Z,19.57
2022-09-06T23:18:33.237Z,21.43
2022-09-06T23:21:07.077Z,21.47
2022-09-06T23:23:35.437Z,21.50
2022-09-06T23:26:11.185Z,21.27
2022-09-06T23:28:39.429Z,22.13
2022-09-06T23:31:08.393Z,22.83
2022-09-06T23:33:37.340Z,22.40
2022-09-06T23:36:08.462Z,21.97
2022-09-06T23:38:37.949Z,22.43
2022-09-06T23:41:06.736Z,22.23
2022-09-06T23:43:34.827Z,22.07
2022-09-06T23:46:02.938Z,22.63
2022-09-06T23:48:31.111Z,20.90
2022-09-06T23:50:59.199Z,22.87
2022-09-06T23:53:28.760Z,20.63
2022-09-06T23:55:56.808Z,19.73
2022-09-06T23:58:24.957Z,19.33
